»·PEaware :: SWA3832 KDAL-KPHX

SWA3832 :: KDAL-KPHX

FLIGHT INFORMATION

Flight Status: Arrived
Operator:
Southwest Airlines
More flights by this operator :: More flights under this callsign
Pilot: Drew L. (13237)
Aircraft: BOEING 737-300
(B733)
More flights by this aircraft type
Origin: KDAL Dallas Love
United States
Destination: KPHX Phoenix Sky Harbor Intl
United States
More flights between these airports :: More routes between these airports
Route: CURLO4 NELYN JEN DCT CUGOR IREZO DEWEY DCT ELP JAGSA DRRVR PINNG1
File this flight plan on PilotEdge
Remarks: Sample flight plan
Altitude:
(Current/Filed)
32,000ft
Speed:
(Current/Filed)
550kts
Departed: 23-Jun-17 10:39 PM
Arrived: 24-Jun-17 12:47 AM
Distance/Time
Traveled:
761nm/2:08
Distance/Time
To Go:
Arrived

Flight Plot

Page will automatically refresh every two minutes.

Flight plan parsing failed; only flown route is shown


Map Options




Map Legend


Flown Route
Filed Route
Departure Airport
Arrival Airport
Navaid (VOR, NDB)
Fix

Horizontal Profiles

Position Reports

Time Latitude Longitude Heading Altitude Ground
Speed
23-Jun-17 22:29 32.845538 -96.852018 35 477ft 0kts
23-Jun-17 22:30 32.845538 -96.852018 35 477ft 0kts
23-Jun-17 22:31 32.845538 -96.852018 35 477ft 0kts
23-Jun-17 22:32 32.845345 -96.852198 37 476ft 0kts
23-Jun-17 22:33 32.844986 -96.852523 36 476ft 0kts
23-Jun-17 22:34 32.844986 -96.852523 37 476ft 0kts
23-Jun-17 22:35 32.845412 -96.852787 328 476ft 9kts
23-Jun-17 22:36 32.847609 -96.854482 357 476ft 16kts
23-Jun-17 22:37 32.849687 -96.859739 316 473ft 24kts
23-Jun-17 22:38 32.850917 -96.863005 134 464ft 0kts
23-Jun-17 22:39 32.850917 -96.863005 134 464ft 0kts
23-Jun-17 22:40 32.850917 -96.863005 134 464ft 0kts
23-Jun-17 22:41 32.850727 -96.862770 129 465ft 22kts
23-Jun-17 22:42 32.820002 -96.827472 128 1740ft 217kts
23-Jun-17 22:43 32.774600 -96.769757 129 4488ft 263kts
23-Jun-17 22:44 32.721288 -96.708428 149 7912ft 279kts
23-Jun-17 22:45 32.645391 -96.732059 204 10406ft 328kts
23-Jun-17 22:46 32.570868 -96.806754 228 12723ft 371kts
23-Jun-17 22:47 32.501467 -96.900132 228 15421ft 388kts
23-Jun-17 22:48 32.428106 -96.997470 228 17934ft 404kts
23-Jun-17 22:49 32.352244 -97.097804 229 20275ft 418kts
23-Jun-17 22:50 32.278227 -97.205305 253 22457ft 425kts
23-Jun-17 22:51 32.256835 -97.342655 261 24566ft 431kts
23-Jun-17 22:52 32.232025 -97.482172 260 26497ft 440kts
23-Jun-17 22:53 32.206335 -97.624525 260 28415ft 445kts
23-Jun-17 22:54 32.181165 -97.763205 260 30850ft 431kts
23-Jun-17 22:55 32.157284 -97.900655 264 32061ft 429kts
23-Jun-17 22:56 32.144258 -98.040348 265 32046ft 427kts
23-Jun-17 22:57 32.128179 -98.178762 261 32047ft 428kts
23-Jun-17 22:58 32.107295 -98.316737 262 32044ft 428kts
23-Jun-17 22:59 32.086557 -98.454747 262 32038ft 428kts
23-Jun-17 23:00 32.065633 -98.592954 262 32032ft 428kts
23-Jun-17 23:01 32.045003 -98.728334 261 32026ft 429kts
23-Jun-17 23:02 32.023829 -98.866149 261 32022ft 429kts
23-Jun-17 23:03 32.002377 -99.004745 260 32029ft 430kts
23-Jun-17 23:04 31.981225 -99.140309 261 32008ft 424kts
23-Jun-17 23:05 31.963357 -99.254080 261 32035ft 424kts
23-Jun-17 23:06 31.941801 -99.390441 261 32046ft 424kts
23-Jun-17 23:07 31.925068 -99.527576 266 32046ft 423kts
23-Jun-17 23:08 31.914796 -99.663405 265 32023ft 424kts
23-Jun-17 23:09 31.904192 -99.801443 265 32048ft 424kts
23-Jun-17 23:10 31.893344 -99.937846 265 32047ft 423kts
23-Jun-17 23:11 31.882417 -100.075382 265 32048ft 423kts
23-Jun-17 23:12 31.871376 -100.212963 265 32050ft 423kts
23-Jun-17 23:13 31.860181 -100.350579 266 32047ft 422kts
23-Jun-17 23:14 31.848902 -100.487410 265 32043ft 422kts
23-Jun-17 23:15 31.837429 -100.624756 265 32037ft 421kts
23-Jun-17 23:16 31.825925 -100.760926 265 32038ft 422kts
23-Jun-17 23:17 31.814195 -100.897800 265 32057ft 422kts
23-Jun-17 23:18 31.802275 -101.035119 265 32100ft 424kts
23-Jun-17 23:19 31.790137 -101.173194 265 32115ft 424kts
23-Jun-17 23:20 31.777923 -101.310424 265 32128ft 424kts
23-Jun-17 23:21 31.765472 -101.448601 265 32130ft 424kts
23-Jun-17 23:22 31.762070 -101.586119 273 32132ft 423kts
23-Jun-17 23:23 31.766269 -101.723369 272 32142ft 423kts
23-Jun-17 23:24 31.770288 -101.861785 272 32143ft 423kts
23-Jun-17 23:25 31.774143 -101.999704 272 32130ft 423kts
23-Jun-17 23:26 31.777863 -102.138109 272 32117ft 424kts
23-Jun-17 23:27 31.781427 -102.276294 272 32102ft 423kts
23-Jun-17 23:28 31.784840 -102.414453 272 32113ft 424kts
23-Jun-17 23:29 31.788105 -102.552638 272 32121ft 424kts
23-Jun-17 23:30 31.791201 -102.690028 272 32098ft 424kts
23-Jun-17 23:31 31.794163 -102.828115 272 32109ft 424kts
23-Jun-17 23:32 31.796983 -102.966424 272 32087ft 424kts
23-Jun-17 23:33 31.799648 -103.104443 272 32083ft 423kts
23-Jun-17 23:34 31.802168 -103.242652 272 32082ft 422kts
23-Jun-17 23:35 31.804530 -103.380409 272 32083ft 422kts
23-Jun-17 23:36 31.806741 -103.517938 272 32082ft 422kts
23-Jun-17 23:37 31.808798 -103.655057 271 32078ft 422kts
23-Jun-17 23:38 31.810710 -103.792603 271 32088ft 422kts
23-Jun-17 23:39 31.812483 -103.930688 271 32096ft 422kts
23-Jun-17 23:40 31.814106 -104.068586 271 32099ft 422kts
23-Jun-17 23:41 31.815578 -104.206173 271 32101ft 422kts
23-Jun-17 23:42 31.816902 -104.344075 271 32120ft 422kts
23-Jun-17 23:43 31.818079 -104.481845 271 32121ft 422kts
23-Jun-17 23:44 31.819103 -104.619199 271 32119ft 422kts
23-Jun-17 23:45 31.819978 -104.756348 270 32121ft 422kts
23-Jun-17 23:46 31.820709 -104.894264 270 32120ft 422kts
23-Jun-17 23:47 31.821289 -105.031619 272 32107ft 426kts
23-Jun-17 23:48 31.821715 -105.170450 272 32115ft 422kts
23-Jun-17 23:49 31.821994 -105.308518 272 32096ft 423kts
23-Jun-17 23:50 31.822120 -105.446949 272 32083ft 423kts
23-Jun-17 23:51 31.822096 -105.585025 272 32083ft 423kts
23-Jun-17 23:52 31.821922 -105.722388 271 32085ft 424kts
23-Jun-17 23:53 31.821601 -105.860596 271 32083ft 424kts
23-Jun-17 23:54 31.821043 -105.998743 271 32083ft 424kts
23-Jun-17 23:55 31.820521 -106.136972 271 32083ft 424kts
23-Jun-17 23:56 31.819755 -106.275344 272 32083ft 424kts
23-Jun-17 23:57 31.832785 -106.412417 280 32083ft 422kts
23-Jun-17 23:58 31.850247 -106.548255 280 32083ft 421kts
23-Jun-17 23:59 31.867434 -106.682876 280 32056ft 422kts
24-Jun-17 00:00 31.884653 -106.819045 279 32094ft 422kts
24-Jun-17 00:01 31.901734 -106.955124 279 32108ft 419kts
24-Jun-17 00:02 31.918553 -107.090394 278 32120ft 419kts
24-Jun-17 00:03 31.933992 -107.216999 278 32119ft 419kts
24-Jun-17 00:04 31.950454 -107.352549 278 32115ft 419kts
24-Jun-17 00:05 31.966804 -107.488051 278 32098ft 419kts
24-Jun-17 00:06 31.983030 -107.623762 278 32092ft 419kts
24-Jun-17 00:07 31.998982 -107.758626 278 32094ft 420kts
24-Jun-17 00:08 32.014949 -107.894692 278 32092ft 419kts
24-Jun-17 00:09 32.030769 -108.030779 278 32093ft 419kts
24-Jun-17 00:10 32.046200 -108.166798 278 32106ft 419kts
24-Jun-17 00:11 32.062319 -108.302919 278 32134ft 419kts
24-Jun-17 00:12 32.078394 -108.438540 278 32170ft 419kts
24-Jun-17 00:13 32.094380 -108.574667 278 32184ft 419kts
24-Jun-17 00:14 32.109873 -108.706120 277 32179ft 419kts
24-Jun-17 00:15 32.125564 -108.841936 277 32174ft 419kts
24-Jun-17 00:16 32.141112 -108.978124 277 32168ft 419kts
24-Jun-17 00:17 32.156566 -109.114825 277 32123ft 423kts
24-Jun-17 00:18 32.172071 -109.253358 277 32070ft 426kts
24-Jun-17 00:19 32.196447 -109.389937 283 32053ft 426kts
24-Jun-17 00:20 32.225279 -109.525198 283 32017ft 427kts
24-Jun-17 00:21 32.253898 -109.660555 282 31958ft 427kts
24-Jun-17 00:22 32.282158 -109.795207 282 31983ft 427kts
24-Jun-17 00:23 32.310604 -109.931281 282 31981ft 427kts
24-Jun-17 00:24 32.338868 -110.067268 282 31963ft 427kts
24-Jun-17 00:25 32.366990 -110.203400 282 31964ft 427kts
24-Jun-17 00:26 32.394970 -110.339646 282 31965ft 427kts
24-Jun-17 00:27 32.422682 -110.475361 282 31910ft 419kts
24-Jun-17 00:28 32.448363 -110.601837 282 30802ft 389kts
24-Jun-17 00:29 32.477484 -110.726110 300 27849ft 405kts
24-Jun-17 00:30 32.541256 -110.836221 303 25235ft 407kts
24-Jun-17 00:31 32.603315 -110.944851 303 22808ft 392kts
24-Jun-17 00:32 32.663215 -111.049838 304 20022ft 379kts
24-Jun-17 00:33 32.721350 -111.151976 305 17330ft 369kts
24-Jun-17 00:34 32.777756 -111.251776 304 14983ft 361kts
24-Jun-17 00:35 32.832919 -111.349402 304 13234ft 353kts
24-Jun-17 00:36 32.886838 -111.444951 304 11894ft 345kts
24-Jun-17 00:37 32.959360 -111.512229 338 11848ft 322kts
24-Jun-17 00:38 33.036217 -111.549357 338 11481ft 283kts
24-Jun-17 00:39 33.106336 -111.583739 338 10338ft 275kts
24-Jun-17 00:40 33.176182 -111.618109 338 9151ft 270kts
24-Jun-17 00:41 33.242186 -111.651937 334 8562ft 243kts
24-Jun-17 00:42 33.299420 -111.685624 335 7558ft 228kts
24-Jun-17 00:43 33.356177 -111.718832 336 6811ft 227kts
24-Jun-17 00:44 33.408457 -111.754852 317 5544ft 214kts
24-Jun-17 00:45 33.430313 -111.808986 268 4631ft 175kts
24-Jun-17 00:46 33.428704 -111.865887 268 3380ft 166kts
24-Jun-17 00:47 33.428747 -111.917428 269 2519ft 151kts
24-Jun-17 00:48 33.428818 -111.967725 269 1705ft 150kts
24-Jun-17 00:49 33.428854 -112.015310 269 1119ft 102kts
24-Jun-17 00:50 33.429954 -112.019694 89 1116ft 15kts
24-Jun-17 00:51 33.432141 -112.015140 82 1122ft 16kts
24-Jun-17 00:52 33.432145 -112.008885 90 1126ft 22kts
24-Jun-17 00:53 33.432141 -112.000965 88 1123ft 14kts
24-Jun-17 00:54 33.433594 -111.999782 34 1123ft 0kts
24-Jun-17 00:55 33.433594 -111.999782 34 1123ft 0kts
24-Jun-17 00:56 33.433594 -111.999782 34 1123ft 0kts
24-Jun-17 00:57 33.433594 -111.999782 34 1123ft 0kts
24-Jun-17 00:58 33.433594 -111.999782 34 1123ft 0kts
24-Jun-17 00:59 33.433594 -111.999782 34 1123ft 0kts
24-Jun-17 01:00 33.433594 -111.999782 34 1123ft 0kts
24-Jun-17 01:01 33.433594 -111.999782 34 1123ft 0kts
24-Jun-17 01:02 33.433594 -111.999782 34 1123ft 0kts
24-Jun-17 01:03 33.433594 -111.999782 34 1123ft 0kts
24-Jun-17 01:04 33.433594 -111.999782 34 1123ft 0kts

Navigation Log

Ident Type
Flight plan parsing failed, navigation log unavailable